Tilleda, Wisconsin
Current Conditions -  °F | °C
As of 11:40 PM on Saturday 22 Nov 2014 (Local Time) from KCLI Reporting Station
Moderate Fog Moderate Fog  
Wind Chill: 37°   Ceiling: 300
Heat Index: 37°   Visibility: 0.5mi
Dew Point: 37°   Wind: 0mph
Humidity: 100%   Direction: NA
Pressure: 29.71"   Gusts: NA
Location:  44.82°N, 88.91°W
Report Text: KCLI 230540Z AUTO 00000KT 1/2SM FG OVC003 03/03 A2971 RMK AO2
Loading
Personal Weather Stations






























Interactive Weather Map New forecast layout! Learn more

10-Day Weather Forecast

Advertisements
Track Severe Weather on mobile